Time,TemperatureF,DewpointF,PressureIn,WindDirection,WindDirectionDegrees,WindSpeedMPH,WindSpeedGustMPH,Humidity,HourlyPrecipIn,Conditions,Clouds,dailyrainin,SoftwareType,DateUTC
2013-05-01 00:01:00,61.5,50.5,29.86,NNW,342,0.0,0.0,67,0.00,,,0.00,VWS V13.01,2013-05-01 05:01:00,
2013-05-01 00:06:00,61.3,49.9,29.86,NNW,342,0.0,0.0,66,0.00,,,0.00,VWS V13.01,2013-05-01 05:06:00,
2013-05-01 00:11:00,61.1,50.1,29.86,NNW,342,0.0,0.0,67,0.00,,,0.00,VWS V13.01,2013-05-01 05:11:00,
2013-05-01 00:16:00,60.8,50.2,29.86,NNW,342,0.0,0.0,68,0.00,,,0.00,VWS V13.01,2013-05-01 05:16:00,
2013-05-01 00:21:00,60.4,50.2,29.86,NNW,342,0.0,0.0,69,0.00,,,0.00,VWS V13.01,2013-05-01 05:21:00,
2013-05-01 00:26:00,60.2,50.4,29.86,NNW,342,0.0,0.0,70,0.00,,,0.00,VWS V13.01,2013-05-01 05:26:00,
2013-05-01 00:31:00,59.9,50.8,29.86,North,4,0.0,0.0,72,0.00,,,0.00,VWS V13.01,2013-05-01 05:31:00,
2013-05-01 00:36:00,59.5,50.5,29.86,North,4,0.0,0.0,72,0.00,,,0.00,VWS V13.01,2013-05-01 05:36:00,
2013-05-01 00:41:00,59.3,51.4,29.86,North,4,0.0,0.0,75,0.00,,,0.00,VWS V13.01,2013-05-01 05:41:00,
2013-05-01 00:45:00,59.0,52.1,29.86,North,4,0.0,0.0,78,0.00,,,0.00,VWS V13.01,2013-05-01 05:45:00,
2013-05-01 00:50:00,58.4,52.6,29.86,NNE,33,2.2,2.7,81,0.00,,,0.00,VWS V13.01,2013-05-01 05:50:00,
2013-05-01 00:55:00,58.1,52.6,29.86,NNE,33,2.2,2.7,82,0.00,,,0.00,VWS V13.01,2013-05-01 05:55:00,
2013-05-01 01:00:00,58.1,52.6,29.86,NNE,33,2.2,2.7,82,0.00,,,0.00,VWS V13.01,2013-05-01 06:00:00,
2013-05-01 01:05:00,58.4,52.6,29.86,NNE,33,2.7,3.6,81,0.00,,,0.00,VWS V13.01,2013-05-01 06:05:00,
2013-05-01 01:10:00,58.6,52.5,29.86,NNE,33,2.7,3.1,80,0.00,,,0.00,VWS V13.01,2013-05-01 06:10:00,
2013-05-01 01:15:00,58.4,52.3,29.86,NNE,33,2.2,2.7,80,0.00,,,0.00,VWS V13.01,2013-05-01 06:15:00,
2013-05-01 01:20:00,58.6,52.5,29.86,NNE,33,0.0,0.0,80,0.00,,,0.00,VWS V13.01,2013-05-01 06:20:00,
2013-05-01 01:25:00,58.8,52.0,29.86,NNE,33,0.0,0.0,78,0.00,,,0.00,VWS V13.01,2013-05-01 06:25:00,
2013-05-01 01:30:00,59.2,52.0,29.86,NNE,33,0.0,0.0,77,0.00,,,0.00,VWS V13.01,2013-05-01 06:30:00,
2013-05-01 01:35:00,59.3,51.8,29.86,NNE,33,0.0,0.0,76,0.00,,,0.00,VWS V13.01,2013-05-01 06:35:00,
2013-05-01 01:40:00,59.5,51.6,29.86,NNE,33,0.0,0.0,75,0.00,,,0.00,VWS V13.01,2013-05-01 06:40:00,
2013-05-01 01:45:00,59.9,51.6,29.86,NNE,33,0.0,0.0,74,0.00,,,0.00,VWS V13.01,2013-05-01 06:45:00,
2013-05-01 01:50:00,59.9,51.6,29.86,NNE,23,0.0,0.0,74,0.00,,,0.00,VWS V13.01,2013-05-01 06:50:00,
2013-05-01 01:55:00,59.7,52.1,29.86,NNE,17,0.0,0.0,76,0.00,,,0.00,VWS V13.01,2013-05-01 06:55:00,
2013-05-01 02:00:00,59.5,52.3,29.86,NNE,17,0.0,0.0,77,0.00,,,0.00,VWS V13.01,2013-05-01 07:00:00,
2013-05-01 02:05:00,59.2,52.3,29.86,NNE,17,0.0,0.0,78,0.00,,,0.00,VWS V13.01,2013-05-01 07:05:00,
2013-05-01 02:10:00,58.8,52.3,29.86,NNE,25,3.1,3.1,79,0.00,,,0.00,VWS V13.01,2013-05-01 07:10:00,
2013-05-01 02:15:00,58.8,52.7,29.86,NNE,25,0.0,0.0,80,0.00,,,0.00,VWS V13.01,2013-05-01 07:15:00,
2013-05-01 02:20:00,58.8,52.7,29.86,NNE,25,0.0,0.0,80,0.00,,,0.00,VWS V13.01,2013-05-01 07:20:00,
2013-05-01 02:25:00,59.0,52.5,29.86,NNE,25,0.0,0.0,79,0.00,,,0.00,VWS V13.01,2013-05-01 07:25:00,
2013-05-01 02:30:00,59.2,52.3,29.86,North,1,0.0,0.0,78,0.00,,,0.00,VWS V13.01,2013-05-01 07:30:00,
2013-05-01 02:35:00,59.0,52.1,29.86,North,1,0.0,0.0,78,0.00,,,0.00,VWS V13.01,2013-05-01 07:35:00,
2013-05-01 02:40:00,59.0,52.5,29.86,North,1,0.0,0.0,79,0.00,,,0.00,VWS V13.01,2013-05-01 07:40:00,
2013-05-01 02:45:00,59.2,52.7,29.86,North,1,0.0,0.0,79,0.00,,,0.00,VWS V13.01,2013-05-01 07:45:00,
2013-05-01 02:50:00,59.3,52.8,29.86,North,1,0.0,0.0,79,0.00,,,0.00,VWS V13.01,2013-05-01 07:50:00,
2013-05-01 02:55:00,59.7,52.5,29.86,North,1,0.0,0.0,77,0.00,,,0.00,VWS V13.01,2013-05-01 07:55:00,
2013-05-01 03:00:00,60.1,52.5,29.86,North,1,0.0,0.0,76,0.00,,,0.00,VWS V13.01,2013-05-01 08:00:00,
2013-05-01 03:05:00,60.2,52.3,29.86,North,1,0.0,0.0,75,0.00,,,0.00,VWS V13.01,2013-05-01 08:05:00,
2013-05-01 03:10:00,60.2,52.3,29.86,North,1,0.0,0.0,75,0.00,,,0.00,VWS V13.01,2013-05-01 08:10:00,
2013-05-01 03:15:00,60.6,52.3,29.86,North,1,0.0,0.0,74,0.00,,,0.00,VWS V13.01,2013-05-01 08:15:00,
2013-05-01 03:20:00,60.6,52.3,29.86,North,1,0.0,0.0,74,0.00,,,0.00,VWS V13.01,2013-05-01 08:20:00,
2013-05-01 03:25:00,60.6,52.3,29.86,North,3,0.0,0.0,74,0.00,,,0.00,VWS V13.01,2013-05-01 08:25:00,
2013-05-01 03:30:00,60.4,52.5,29.86,North,3,0.0,0.0,75,0.00,,,0.00,VWS V13.01,2013-05-01 08:30:00,
2013-05-01 03:35:00,60.2,52.3,29.86,North,7,0.0,0.0,75,0.00,,,0.00,VWS V13.01,2013-05-01 08:35:00,
2013-05-01 03:40:00,60.1,52.5,29.86,North,7,0.0,0.0,76,0.00,,,0.00,VWS V13.01,2013-05-01 08:40:00,
2013-05-01 03:45:00,59.9,52.3,29.86,North,7,0.0,0.0,76,0.00,,,0.00,VWS V13.01,2013-05-01 08:45:00,
2013-05-01 03:50:00,59.9,52.7,29.86,North,7,0.0,0.0,77,0.00,,,0.00,VWS V13.01,2013-05-01 08:50:00,
2013-05-01 03:55:00,59.5,52.7,29.86,North,7,0.0,0.0,78,0.00,,,0.00,VWS V13.01,2013-05-01 08:55:00,
2013-05-01 04:00:00,59.3,53.2,29.86,North,7,0.0,0.0,80,0.00,,,0.00,VWS V13.01,2013-05-01 09:00:00,
2013-05-01 04:05:00,59.0,52.8,29.86,North,7,0.0,0.0,80,0.00,,,0.00,VWS V13.01,2013-05-01 09:05:00,
2013-05-01 04:10:00,59.0,53.2,29.86,North,7,0.0,0.0,81,0.00,,,0.00,VWS V13.01,2013-05-01 09:10:00,
2013-05-01 04:15:00,59.0,53.2,29.86,North,4,0.0,0.0,81,0.00,,,0.00,VWS V13.01,2013-05-01 09:15:00,
2013-05-01 04:20:00,59.0,53.2,29.86,NNW,344,0.0,0.0,81,0.00,,,0.00,VWS V13.01,2013-05-01 09:20:00,
2013-05-01 04:25:00,58.8,53.0,29.86,NNW,344,0.0,0.0,81,0.00,,,0.00,VWS V13.01,2013-05-01 09:25:00,
2013-05-01 04:30:00,58.6,53.5,29.86,NNW,344,0.0,0.0,83,0.00,,,0.00,VWS V13.01,2013-05-01 09:30:00,
2013-05-01 04:35:00,58.3,53.5,29.86,NNW,346,0.0,0.0,84,0.00,,,0.00,VWS V13.01,2013-05-01 09:35:00,
2013-05-01 04:40:00,57.9,53.4,29.86,North,6,0.0,0.0,85,0.00,,,0.00,VWS V13.01,2013-05-01 09:40:00,
2013-05-01 04:45:00,57.9,53.7,29.86,North,6,0.0,0.0,86,0.00,,,0.00,VWS V13.01,2013-05-01 09:45:00,
2013-05-01 04:50:00,57.7,53.9,29.86,North,6,0.0,0.0,87,0.00,,,0.00,VWS V13.01,2013-05-01 09:50:00,
2013-05-01 04:55:00,57.5,54.0,29.86,North,6,0.0,0.0,88,0.00,,,0.00,VWS V13.01,2013-05-01 09:55:00,
2013-05-01 05:00:00,57.5,53.7,29.89,North,6,0.0,0.0,87,0.00,,,0.00,VWS V13.01,2013-05-01 10:00:00,
2013-05-01 05:05:00,57.5,54.0,29.89,North,6,0.0,0.0,88,0.00,,,0.00,VWS V13.01,2013-05-01 10:05:00,
2013-05-01 05:10:00,57.5,54.3,29.89,North,6,0.0,0.0,89,0.00,,,0.00,VWS V13.01,2013-05-01 10:10:00,
2013-05-01 05:15:00,57.4,54.2,29.89,North,6,0.0,0.0,89,0.00,,,0.00,VWS V13.01,2013-05-01 10:15:00,
2013-05-01 05:20:00,57.2,54.0,29.89,North,6,0.0,0.0,89,0.00,,,0.00,VWS V13.01,2013-05-01 10:20:00,
2013-05-01 05:25:00,57.2,54.3,29.89,North,6,0.0,0.0,90,0.00,,,0.00,VWS V13.01,2013-05-01 10:25:00,
2013-05-01 05:30:00,57.0,54.1,29.89,North,6,0.0,0.0,90,0.00,,,0.00,VWS V13.01,2013-05-01 10:30:00,
2013-05-01 05:35:00,57.0,54.4,29.89,North,6,0.0,0.0,91,0.00,,,0.00,VWS V13.01,2013-05-01 10:35:00,
2013-05-01 05:40:00,56.8,54.2,29.89,North,6,0.0,0.0,91,0.00,,,0.00,VWS V13.01,2013-05-01 10:40:00,
2013-05-01 05:45:00,57.0,54.7,29.89,North,6,0.0,0.0,92,0.00,,,0.00,VWS V13.01,2013-05-01 10:45:00,
2013-05-01 05:50:00,57.0,54.7,29.89,North,6,0.0,0.0,92,0.00,,,0.00,VWS V13.01,2013-05-01 10:50:00,
2013-05-01 05:55:00,56.8,54.5,29.89,North,6,0.0,0.0,92,0.00,,,0.00,VWS V13.01,2013-05-01 10:55:00,
2013-05-01 06:00:00,56.6,54.3,29.89,North,6,0.0,0.0,92,0.00,,,0.00,VWS V13.01,2013-05-01 11:00:00,
2013-05-01 06:05:00,56.5,54.2,29.89,North,6,0.0,0.0,92,0.00,,,0.00,VWS V13.01,2013-05-01 11:05:00,
2013-05-01 06:10:00,56.5,54.5,29.89,North,6,0.0,0.0,93,0.00,,,0.00,VWS V13.01,2013-05-01 11:10:00,
2013-05-01 06:15:00,56.5,54.5,29.89,North,6,0.0,0.0,93,0.00,,,0.00,VWS V13.01,2013-05-01 11:15:00,
2013-05-01 06:20:00,56.5,54.5,29.89,North,6,0.0,0.0,93,0.00,,,0.00,VWS V13.01,2013-05-01 11:20:00,
2013-05-01 06:25:00,56.5,54.8,29.89,North,6,0.0,0.0,94,0.00,,,0.00,VWS V13.01,2013-05-01 11:25:00,
2013-05-01 06:30:00,56.6,54.9,29.89,North,6,0.0,0.0,94,0.00,,,0.00,VWS V13.01,2013-05-01 11:30:00,
2013-05-01 06:35:00,56.6,54.9,29.89,North,6,0.0,0.0,94,0.00,,,0.00,VWS V13.01,2013-05-01 11:35:00,
2013-05-01 06:40:00,56.6,54.9,29.89,North,6,0.0,0.0,94,0.00,,,0.00,VWS V13.01,2013-05-01 11:40:00,
2013-05-01 06:45:00,56.5,54.8,29.89,North,6,0.0,0.0,94,0.00,,,0.00,VWS V13.01,2013-05-01 11:45:00,
2013-05-01 06:50:00,56.5,54.8,29.89,North,6,0.0,0.0,94,0.00,,,0.00,VWS V13.01,2013-05-01 11:50:00,
2013-05-01 06:55:00,56.5,55.0,29.89,North,6,0.0,0.0,95,0.00,,,0.00,VWS V13.01,2013-05-01 11:55:00,
2013-05-01 06:59:00,56.5,55.3,29.89,North,6,0.0,0.0,96,0.00,,,0.00,VWS V13.01,2013-05-01 11:59:00,
2013-05-01 07:04:00,56.5,55.3,29.89,North,6,0.0,0.0,96,0.00,,,0.00,VWS V13.01,2013-05-01 12:04:00,
2013-05-01 07:09:00,56.6,55.5,29.89,North,6,0.0,0.0,96,0.00,,,0.00,VWS V13.01,2013-05-01 12:09:00,
2013-05-01 07:14:00,56.8,56.0,29.89,NNE,12,0.0,0.0,97,0.00,,,0.00,VWS V13.01,2013-05-01 12:14:00,
2013-05-01 07:19:00,56.8,56.3,29.89,NNE,12,0.0,0.0,98,0.00,,,0.00,VWS V13.01,2013-05-01 12:19:00,
2013-05-01 07:24:00,57.2,56.6,29.89,NNE,12,0.0,0.0,98,0.00,,,0.00,VWS V13.01,2013-05-01 12:24:00,
2013-05-01 07:29:00,57.5,57.5,29.92,NNE,12,0.0,0.0,100,0.00,,,0.00,VWS V13.01,2013-05-01 12:29:00,
2013-05-01 07:34:00,57.9,57.9,29.92,ENE,68,4.0,4.0,100,0.00,,,0.00,VWS V13.01,2013-05-01 12:34:00,
2013-05-01 07:39:00,58.4,58.4,29.92,ENE,60,0.0,0.0,100,0.00,,,0.00,VWS V13.01,2013-05-01 12:39:00,
2013-05-01 07:44:00,59.2,59.2,29.92,NNE,23,0.0,0.0,100,0.00,,,0.00,VWS V13.01,2013-05-01 12:44:00,
2013-05-01 07:49:00,59.9,59.9,29.92,ENE,68,0.0,0.0,100,0.00,,,0.00,VWS V13.01,2013-05-01 12:49:00,
2013-05-01 07:54:00,61.0,60.4,29.92,ENE,71,3.6,4.0,98,0.00,,,0.00,VWS V13.01,2013-05-01 12:54:00,
2013-05-01 07:59:00,61.9,61.0,29.92,East,91,0.0,2.7,97,0.00,,,0.00,VWS V13.01,2013-05-01 12:59:00,
2013-05-01 08:04:00,62.6,60.5,29.92,East,84,0.0,0.0,93,0.00,,,0.00,VWS V13.01,2013-05-01 13:04:00,
2013-05-01 08:09:00,63.3,58.7,29.92,ENE,70,3.1,4.0,85,0.00,,,0.00,VWS V13.01,2013-05-01 13:09:00,
2013-05-01 08:14:00,64.0,57.7,29.92,East,100,3.6,3.6,80,0.00,,,0.00,VWS V13.01,2013-05-01 13:14:00,
2013-05-01 08:19:00,64.6,56.5,29.92,NE,44,3.6,3.6,75,0.00,,,0.00,VWS V13.01,2013-05-01 13:19:00,
2013-05-01 08:24:00,65.1,57.0,29.92,NE,35,3.1,3.6,75,0.00,,,0.00,VWS V13.01,2013-05-01 13:24:00,
2013-05-01 08:29:00,65.6,57.1,29.92,ENE,59,2.2,3.6,74,0.00,,,0.00,VWS V13.01,2013-05-01 13:29:00,
2013-05-01 08:34:00,65.8,56.5,29.92,NE,39,4.9,4.9,72,0.00,,,0.00,VWS V13.01,2013-05-01 13:34:00,
2013-05-01 08:39:00,66.4,57.8,29.92,NE,35,4.0,4.0,74,0.00,,,0.00,VWS V13.01,2013-05-01 13:39:00,
2013-05-01 08:44:00,66.9,57.6,29.92,East,94,5.4,5.4,72,0.00,,,0.00,VWS V13.01,2013-05-01 13:44:00,
2013-05-01 08:49:00,66.5,56.1,29.92,ENE,69,3.6,3.6,69,0.00,,,0.00,VWS V13.01,2013-05-01 13:49:00,
2013-05-01 08:54:00,66.4,57.1,29.92,NE,51,3.1,4.0,72,0.00,,,0.00,VWS V13.01,2013-05-01 13:54:00,
2013-05-01 08:59:00,66.2,56.5,29.92,NE,48,2.2,2.7,71,0.00,,,0.00,VWS V13.01,2013-05-01 13:59:00,
2013-05-01 09:04:00,66.4,56.7,29.92,ENE,57,3.6,4.0,71,0.00,,,0.00,VWS V13.01,2013-05-01 14:04:00,
2013-05-01 09:09:00,66.7,57.0,29.92,ENE,74,2.7,4.0,71,0.00,,,0.00,VWS V13.01,2013-05-01 14:09:00,
2013-05-01 09:14:00,67.4,57.7,29.92,ENE,57,2.7,2.7,71,0.00,,,0.00,VWS V13.01,2013-05-01 14:14:00,
2013-05-01 09:19:00,67.8,56.9,29.92,ENE,59,4.9,4.9,68,0.00,,,0.00,VWS V13.01,2013-05-01 14:19:00,
2013-05-01 09:24:00,67.8,56.5,29.92,NE,46,5.4,5.4,67,0.00,,,0.00,VWS V13.01,2013-05-01 14:24:00,
2013-05-01 09:29:00,68.0,57.0,29.92,NE,35,3.1,3.1,68,0.00,,,0.00,VWS V13.01,2013-05-01 14:29:00,
2013-05-01 09:34:00,68.3,57.4,29.92,ENE,64,2.7,2.7,68,0.00,,,0.00,VWS V13.01,2013-05-01 14:34:00,
2013-05-01 09:39:00,68.7,57.3,29.92,ENE,62,5.8,5.8,67,0.00,,,0.00,VWS V13.01,2013-05-01 14:39:00,
2013-05-01 09:44:00,68.9,57.5,29.92,ESE,109,3.1,5.8,67,0.00,,,0.00,VWS V13.01,2013-05-01 14:44:00,
2013-05-01 09:49:00,68.9,58.3,29.92,ENE,78,3.6,3.6,69,0.00,,,0.00,VWS V13.01,2013-05-01 14:49:00,
2013-05-01 09:54:00,69.2,57.8,29.92,East,96,4.9,6.3,67,0.00,,,0.00,VWS V13.01,2013-05-01 14:54:00,
2013-05-01 09:59:00,69.6,57.8,29.95,NE,46,4.5,7.6,66,0.00,,,0.00,VWS V13.01,2013-05-01 14:59:00,
2013-05-01 10:04:00,70.5,58.6,29.95,ENE,69,4.0,4.0,66,0.00,,,0.00,VWS V13.01,2013-05-01 15:04:00,
2013-05-01 10:09:00,71.0,59.1,29.95,East,93,2.2,3.1,66,0.00,,,0.00,VWS V13.01,2013-05-01 15:09:00,
2013-05-01 10:14:00,71.6,58.8,29.95,East,85,7.6,7.6,64,0.00,,,0.00,VWS V13.01,2013-05-01 15:14:00,
2013-05-01 10:19:00,71.6,58.3,29.95,East,99,5.4,5.4,63,0.00,,,0.00,VWS V13.01,2013-05-01 15:19:00,
2013-05-01 10:24:00,71.4,57.7,29.95,East,100,6.3,10.1,62,0.00,,,0.00,VWS V13.01,2013-05-01 15:24:00,
2013-05-01 10:29:00,71.4,58.2,29.95,East,82,5.8,5.8,63,0.00,,,0.00,VWS V13.01,2013-05-01 15:29:00,
2013-05-01 10:34:00,71.6,57.9,29.95,ESE,117,6.3,9.6,62,0.00,,,0.00,VWS V13.01,2013-05-01 15:34:00,
2013-05-01 10:39:00,71.6,57.9,29.95,NNE,24,5.8,5.8,62,0.00,,,0.00,VWS V13.01,2013-05-01 15:39:00,
2013-05-01 10:44:00,71.8,57.6,29.95,ENE,58,5.4,5.4,61,0.00,,,0.00,VWS V13.01,2013-05-01 15:44:00,
2013-05-01 10:49:00,71.8,57.6,29.95,NE,55,3.1,6.3,61,0.00,,,0.00,VWS V13.01,2013-05-01 15:49:00,
2013-05-01 10:54:00,71.9,58.2,29.95,East,93,4.0,6.3,62,0.00,,,0.00,VWS V13.01,2013-05-01 15:54:00,
2013-05-01 10:59:00,72.3,58.1,29.95,ESE,102,4.0,5.4,61,0.00,,,0.00,VWS V13.01,2013-05-01 15:59:00,
2013-05-01 11:04:00,72.1,57.9,29.95,NE,54,5.8,5.8,61,0.00,,,0.00,VWS V13.01,2013-05-01 16:04:00,
2013-05-01 11:09:00,71.2,57.5,29.95,ENE,64,5.4,8.1,62,0.00,,,0.00,VWS V13.01,2013-05-01 16:09:00,
2013-05-01 11:14:00,71.0,58.3,29.95,ENE,60,3.1,4.0,64,0.00,,,0.00,VWS V13.01,2013-05-01 16:14:00,
2013-05-01 11:19:00,71.0,58.3,29.95,ENE,60,3.1,5.4,64,0.00,,,0.00,VWS V13.01,2013-05-01 16:19:00,
2013-05-01 11:24:00,71.2,58.0,29.95,ENE,70,8.1,8.1,63,0.00,,,0.00,VWS V13.01,2013-05-01 16:24:00,
2013-05-01 11:29:00,71.8,59.4,29.95,East,98,3.6,5.4,65,0.00,,,0.00,VWS V13.01,2013-05-01 16:29:00,
2013-05-01 11:34:00,72.7,58.5,29.95,NE,47,5.4,5.8,61,0.00,,,0.00,VWS V13.01,2013-05-01 16:34:00,
2013-05-01 11:39:00,73.7,58.1,29.95,NE,38,2.7,6.7,58,0.00,,,0.00,VWS V13.01,2013-05-01 16:39:00,
2013-05-01 11:44:00,73.6,58.4,29.95,ENE,70,3.6,5.4,59,0.00,,,0.00,VWS V13.01,2013-05-01 16:44:00,
2013-05-01 11:49:00,73.6,57.9,29.95,ESE,112,5.4,5.4,58,0.00,,,0.00,VWS V13.01,2013-05-01 16:49:00,
2013-05-01 11:54:00,73.2,58.0,29.95,East,96,5.4,7.6,59,0.00,,,0.00,VWS V13.01,2013-05-01 16:54:00,
2013-05-01 11:59:00,73.6,58.8,29.95,SSE,157,6.3,6.3,60,0.00,,,0.00,VWS V13.01,2013-05-01 16:59:00,
2013-05-01 12:04:00,73.9,57.7,29.95,SE,131,6.3,8.3,57,0.00,,,0.00,VWS V13.01,2013-05-01 17:04:00,
2013-05-01 12:09:00,74.3,58.1,29.95,SSE,150,3.6,7.2,57,0.00,,,0.00,VWS V13.01,2013-05-01 17:09:00,
2013-05-01 12:14:00,75.2,58.9,29.95,SE,124,6.3,9.2,57,0.00,,,0.00,VWS V13.01,2013-05-01 17:14:00,
2013-05-01 12:19:00,74.8,59.1,29.98,ESE,122,3.6,4.0,58,0.00,,,0.00,VWS V13.01,2013-05-01 17:19:00,
2013-05-01 12:24:00,75.4,58.1,29.98,North,7,6.3,8.1,55,0.00,,,0.00,VWS V13.01,2013-05-01 17:24:00,
2013-05-01 12:29:00,75.4,57.6,29.98,East,92,8.7,9.2,54,0.00,,,0.00,VWS V13.01,2013-05-01 17:29:00,
2013-05-01 12:34:00,75.2,56.9,29.98,NE,50,4.0,5.4,53,0.00,,,0.00,VWS V13.01,2013-05-01 17:34:00,
2013-05-01 12:39:00,75.7,56.9,29.98,NE,37,3.6,5.8,52,0.00,,,0.00,VWS V13.01,2013-05-01 17:39:00,
2013-05-01 12:44:00,76.1,56.7,29.98,NNE,20,4.0,6.3,51,0.00,,,0.00,VWS V13.01,2013-05-01 17:44:00,
2013-05-01 12:49:00,76.6,57.2,29.98,ESE,123,6.3,6.3,51,0.00,,,0.00,VWS V13.01,2013-05-01 17:49:00,
2013-05-01 12:54:00,76.8,57.9,29.98,ENE,58,6.3,6.3,52,0.00,,,0.00,VWS V13.01,2013-05-01 17:54:00,
2013-05-01 12:59:00,76.8,57.9,29.98,ENE,73,5.8,8.7,52,0.00,,,0.00,VWS V13.01,2013-05-01 17:59:00,
2013-05-01 13:03:00,76.6,58.2,29.98,ESE,107,6.7,7.6,53,0.00,,,0.00,VWS V13.01,2013-05-01 18:03:00,
2013-05-01 13:08:00,76.4,57.5,29.98,NE,36,5.4,8.1,52,0.00,,,0.00,VWS V13.01,2013-05-01 18:08:00,
2013-05-01 13:13:00,76.8,57.3,29.98,ESE,105,5.8,5.8,51,0.00,,,0.00,VWS V13.01,2013-05-01 18:13:00,
2013-05-01 13:18:00,77.0,58.0,29.98,East,81,8.3,8.3,52,0.00,,,0.00,VWS V13.01,2013-05-01 18:18:00,
2013-05-01 13:23:00,76.3,57.4,29.98,ESE,108,5.8,8.7,52,0.00,,,0.00,VWS V13.01,2013-05-01 18:23:00,
2013-05-01 13:28:00,75.5,56.7,29.98,SSE,147,6.3,6.3,52,0.00,,,0.00,VWS V13.01,2013-05-01 18:28:00,
2013-05-01 13:33:00,75.7,56.9,29.98,East,85,7.6,8.3,52,0.00,,,0.00,VWS V13.01,2013-05-01 18:33:00,
2013-05-01 13:38:00,76.3,57.9,29.98,ESE,114,4.0,5.8,53,0.00,,,0.00,VWS V13.01,2013-05-01 18:38:00,
2013-05-01 13:43:00,75.7,57.4,29.98,SSE,168,5.4,5.8,53,0.00,,,0.00,VWS V13.01,2013-05-01 18:43:00,
2013-05-01 13:48:00,75.5,57.2,29.98,East,80,3.6,4.0,53,0.00,,,0.00,VWS V13.01,2013-05-01 18:48:00,
2013-05-01 13:53:00,75.7,57.4,29.98,SSE,165,5.4,6.3,53,0.00,,,0.00,VWS V13.01,2013-05-01 18:53:00,
2013-05-01 13:58:00,75.7,57.4,29.95,SSE,154,8.1,8.1,53,0.00,,,0.00,VWS V13.01,2013-05-01 18:58:00,
2013-05-01 14:03:00,75.4,57.1,29.95,East,85,13.2,15.0,53,0.00,,,0.00,VWS V13.01,2013-05-01 19:03:00,
2013-05-01 14:08:00,75.2,56.4,29.95,East,87,12.8,12.8,52,0.00,,,0.00,VWS V13.01,2013-05-01 19:08:00,
2013-05-01 14:13:00,75.0,56.2,29.95,East,100,3.1,8.3,52,0.00,,,0.00,VWS V13.01,2013-05-01 19:13:00,
2013-05-01 14:18:00,74.5,56.8,29.98,ESE,111,5.4,6.7,54,0.00,,,0.00,VWS V13.01,2013-05-01 19:18:00,
2013-05-01 14:23:00,74.1,56.4,29.98,SSE,166,4.9,6.3,54,0.00,,,0.00,VWS V13.01,2013-05-01 19:23:00,
2013-05-01 14:28:00,74.1,57.9,29.98,SSE,147,3.6,5.4,57,0.00,,,0.00,VWS V13.01,2013-05-01 19:28:00,
2013-05-01 14:33:00,74.1,57.4,29.98,SE,143,7.2,7.2,56,0.00,,,0.00,VWS V13.01,2013-05-01 19:33:00,
2013-05-01 14:38:00,73.9,55.2,29.98,ESE,110,6.3,8.3,52,0.00,,,0.00,VWS V13.01,2013-05-01 19:38:00,
2013-05-01 14:43:00,73.6,54.9,29.98,ESE,115,8.3,14.5,52,0.00,,,0.00,VWS V13.01,2013-05-01 19:43:00,
2013-05-01 14:48:00,73.0,55.4,29.98,ENE,65,8.1,8.1,54,0.00,,,0.00,VWS V13.01,2013-05-01 19:48:00,
2013-05-01 14:53:00,72.7,55.6,29.98,ESE,116,8.1,8.1,55,0.00,,,0.00,VWS V13.01,2013-05-01 19:53:00,
2013-05-01 14:58:00,72.5,55.9,29.98,ENE,73,6.3,8.3,56,0.00,,,0.00,VWS V13.01,2013-05-01 19:58:00,
2013-05-01 15:03:00,72.7,56.6,29.98,East,83,2.7,4.0,57,0.00,,,0.00,VWS V13.01,2013-05-01 20:03:00,
2013-05-01 15:08:00,73.2,57.1,29.98,ENE,65,8.3,8.3,57,0.00,,,0.00,VWS V13.01,2013-05-01 20:08:00,
2013-05-01 15:13:00,73.2,56.1,29.98,ESE,104,6.3,11.0,55,0.00,,,0.00,VWS V13.01,2013-05-01 20:13:00,
2013-05-01 15:18:00,72.7,56.6,29.98,ESE,116,7.6,7.6,57,0.00,,,0.00,VWS V13.01,2013-05-01 20:18:00,
2013-05-01 15:23:00,73.0,57.4,29.98,East,82,4.9,4.9,58,0.00,,,0.00,VWS V13.01,2013-05-01 20:23:00,
2013-05-01 15:28:00,73.9,57.2,29.98,East,87,8.3,8.3,56,0.00,,,0.00,VWS V13.01,2013-05-01 20:28:00,
2013-05-01 15:33:00,74.8,58.6,29.98,SE,143,3.6,3.6,57,0.00,,,0.00,VWS V13.01,2013-05-01 20:33:00,
2013-05-01 15:38:00,75.2,57.4,29.98,ENE,76,6.3,8.1,54,0.00,,,0.00,VWS V13.01,2013-05-01 20:38:00,
2013-05-01 15:43:00,75.4,57.1,29.98,East,97,7.6,8.7,53,0.00,,,0.00,VWS V13.01,2013-05-01 20:43:00,
2013-05-01 15:48:00,74.5,55.7,29.98,ESE,114,10.5,12.3,52,0.00,,,0.00,VWS V13.01,2013-05-01 20:48:00,
2013-05-01 15:53:00,74.3,55.5,29.98,SE,125,11.9,12.8,52,0.00,,,0.00,VWS V13.01,2013-05-01 20:53:00,
2013-05-01 15:58:00,73.9,54.7,29.98,ENE,62,7.6,8.7,51,0.00,,,0.00,VWS V13.01,2013-05-01 20:58:00,
2013-05-01 16:03:00,73.9,55.2,29.98,ESE,106,7.6,7.6,52,0.00,,,0.00,VWS V13.01,2013-05-01 21:03:00,
2013-05-01 16:08:00,73.9,54.7,29.98,East,90,3.6,5.8,51,0.00,,,0.00,VWS V13.01,2013-05-01 21:08:00,
2013-05-01 16:13:00,73.9,54.7,29.98,NE,46,5.8,5.8,51,0.00,,,0.00,VWS V13.01,2013-05-01 21:13:00,
2013-05-01 16:18:00,73.7,55.0,29.98,ESE,120,5.8,6.3,52,0.00,,,0.00,VWS V13.01,2013-05-01 21:18:00,
2013-05-01 16:23:00,73.7,55.0,29.98,SE,125,4.0,8.7,52,0.00,,,0.00,VWS V13.01,2013-05-01 21:23:00,
2013-05-01 16:28:00,73.6,55.4,29.98,ESE,114,4.9,4.9,53,0.00,,,0.00,VWS V13.01,2013-05-01 21:28:00,
2013-05-01 16:33:00,73.4,55.2,29.98,SE,136,5.8,7.2,53,0.00,,,0.00,VWS V13.01,2013-05-01 21:33:00,
2013-05-01 16:38:00,73.4,55.2,29.98,East,92,4.0,4.0,53,0.00,,,0.00,VWS V13.01,2013-05-01 21:38:00,
2013-05-01 16:43:00,73.2,55.1,29.98,East,95,6.3,8.7,53,0.00,,,0.00,VWS V13.01,2013-05-01 21:43:00,
2013-05-01 16:48:00,73.2,55.1,29.98,ESE,110,2.7,4.0,53,0.00,,,0.00,VWS V13.01,2013-05-01 21:48:00,
2013-05-01 16:53:00,73.4,55.7,29.98,East,86,3.1,3.1,54,0.00,,,0.00,VWS V13.01,2013-05-01 21:53:00,
2013-05-01 16:58:00,74.3,56.1,29.98,East,96,7.2,8.1,53,0.00,,,0.00,VWS V13.01,2013-05-01 21:58:00,
2013-05-01 17:03:00,74.5,56.2,29.98,SSE,157,2.2,5.8,53,0.00,,,0.00,VWS V13.01,2013-05-01 22:03:00,
2013-05-01 17:08:00,74.6,55.9,29.98,East,94,8.7,8.7,52,0.00,,,0.00,VWS V13.01,2013-05-01 22:08:00,
2013-05-01 17:13:00,74.5,55.7,29.98,SE,129,8.3,8.3,52,0.00,,,0.00,VWS V13.01,2013-05-01 22:13:00,
2013-05-01 17:18:00,74.5,55.7,29.98,East,95,5.4,5.4,52,0.00,,,0.00,VWS V13.01,2013-05-01 22:18:00,
2013-05-01 17:23:00,74.5,55.2,29.98,ESE,108,8.7,10.5,51,0.00,,,0.00,VWS V13.01,2013-05-01 22:23:00,
2013-05-01 17:28:00,73.6,54.9,29.98,East,91,5.8,5.8,52,0.00,,,0.00,VWS V13.01,2013-05-01 22:28:00,
2013-05-01 17:33:00,73.6,55.4,29.98,East,90,3.6,6.3,53,0.00,,,0.00,VWS V13.01,2013-05-01 22:33:00,
2013-05-01 17:38:00,73.6,55.4,29.98,NE,41,5.4,5.4,53,0.00,,,0.00,VWS V13.01,2013-05-01 22:38:00,
2013-05-01 17:43:00,73.6,55.4,29.98,ENE,65,4.0,4.0,53,0.00,,,0.00,VWS V13.01,2013-05-01 22:43:00,
2013-05-01 17:48:00,73.2,54.5,29.98,East,91,7.6,8.1,52,0.00,,,0.00,VWS V13.01,2013-05-01 22:48:00,
2013-05-01 17:53:00,72.7,54.6,29.98,ENE,70,5.4,8.3,53,0.00,,,0.00,VWS V13.01,2013-05-01 22:53:00,
2013-05-01 17:58:00,72.3,54.7,29.98,NE,49,3.1,5.4,54,0.00,,,0.00,VWS V13.01,2013-05-01 22:58:00,
2013-05-01 18:03:00,72.1,55.1,29.98,East,100,8.1,8.1,55,0.00,,,0.00,VWS V13.01,2013-05-01 23:03:00,
2013-05-01 18:08:00,71.9,55.4,29.98,East,80,3.6,3.6,56,0.00,,,0.00,VWS V13.01,2013-05-01 23:08:00,
2013-05-01 18:13:00,71.8,55.2,29.98,East,79,3.1,5.8,56,0.00,,,0.00,VWS V13.01,2013-05-01 23:13:00,
2013-05-01 18:18:00,71.6,55.1,29.98,East,83,3.1,3.6,56,0.00,,,0.00,VWS V13.01,2013-05-01 23:18:00,
2013-05-01 18:23:00,71.2,55.2,29.98,NE,38,3.6,4.9,57,0.00,,,0.00,VWS V13.01,2013-05-01 23:23:00,
2013-05-01 18:28:00,71.0,55.5,29.98,SE,143,3.6,3.6,58,0.00,,,0.00,VWS V13.01,2013-05-01 23:28:00,
2013-05-01 18:33:00,70.9,55.8,29.98,NE,37,2.7,2.7,59,0.00,,,0.00,VWS V13.01,2013-05-01 23:33:00,
2013-05-01 18:38:00,70.7,56.1,29.98,NNE,28,7.6,7.6,60,0.00,,,0.00,VWS V13.01,2013-05-01 23:38:00,
2013-05-01 18:43:00,70.5,56.4,29.98,ENE,76,3.6,3.6,61,0.00,,,0.00,VWS V13.01,2013-05-01 23:43:00,
2013-05-01 18:48:00,70.5,56.9,29.98,NE,45,2.2,2.2,62,0.00,,,0.00,VWS V13.01,2013-05-01 23:48:00,
2013-05-01 18:53:00,70.5,56.9,29.98,NE,49,0.0,0.0,62,0.00,,,0.00,VWS V13.01,2013-05-01 23:53:00,
2013-05-01 18:58:00,70.5,56.9,29.98,SSE,160,6.3,6.3,62,0.00,,,0.00,VWS V13.01,2013-05-01 23:58:00,
2013-05-01 19:03:00,70.1,56.5,29.98,NNE,27,2.7,2.7,62,0.00,,,0.00,VWS V13.01,2013-05-02 00:03:00,
2013-05-01 19:08:00,70.1,56.5,29.98,ENE,77,2.7,2.7,62,0.00,,,0.00,VWS V13.01,2013-05-02 00:08:00,
2013-05-01 19:12:00,70.1,57.0,29.98,ENE,63,0.0,0.0,63,0.00,,,0.00,VWS V13.01,2013-05-02 00:12:00,
2013-05-01 19:17:00,70.1,57.0,29.98,ENE,78,2.7,4.0,63,0.00,,,0.00,VWS V13.01,2013-05-02 00:17:00,
2013-05-01 19:22:00,70.0,56.8,29.98,East,81,3.1,4.9,63,0.00,,,0.00,VWS V13.01,2013-05-02 00:22:00,
2013-05-01 19:27:00,69.8,56.6,29.98,NNE,28,2.7,4.0,63,0.00,,,0.00,VWS V13.01,2013-05-02 00:27:00,
2013-05-01 19:32:00,69.8,56.6,29.98,East,96,2.2,4.0,63,0.00,,,0.00,VWS V13.01,2013-05-02 00:32:00,
2013-05-01 19:37:00,69.6,56.9,29.98,NE,38,0.0,0.0,64,0.00,,,0.00,VWS V13.01,2013-05-02 00:37:00,
2013-05-01 19:42:00,69.6,56.9,29.98,East,92,3.1,3.1,64,0.00,,,0.00,VWS V13.01,2013-05-02 00:42:00,
2013-05-01 19:47:00,69.4,57.2,29.98,ENE,62,2.7,2.7,65,0.00,,,0.00,VWS V13.01,2013-05-02 00:47:00,
2013-05-01 19:52:00,69.2,57.0,29.98,NE,46,2.7,2.7,65,0.00,,,0.00,VWS V13.01,2013-05-02 00:52:00,
2013-05-01 19:57:00,68.9,56.6,29.98,NE,55,0.0,0.0,65,0.00,,,0.00,VWS V13.01,2013-05-02 00:57:00,
2013-05-01 20:02:00,68.7,56.9,29.98,ENE,66,0.0,0.0,66,0.00,,,0.00,VWS V13.01,2013-05-02 01:02:00,
2013-05-01 20:07:00,68.5,57.1,29.98,NE,54,0.0,2.2,67,0.00,,,0.00,VWS V13.01,2013-05-02 01:07:00,
2013-05-01 20:12:00,68.3,57.0,29.98,NNE,23,2.7,2.7,67,0.00,,,0.00,VWS V13.01,2013-05-02 01:12:00,
2013-05-01 20:17:00,68.2,57.2,29.98,NE,41,2.7,3.1,68,0.00,,,0.00,VWS V13.01,2013-05-02 01:17:00,
2013-05-01 20:22:00,67.8,57.3,29.98,NE,56,0.0,0.0,69,0.00,,,0.00,VWS V13.01,2013-05-02 01:22:00,
2013-05-01 20:27:00,67.6,57.5,29.98,NE,48,4.0,4.0,70,0.00,,,0.00,VWS V13.01,2013-05-02 01:27:00,
2013-05-01 20:32:00,67.4,57.3,29.98,ENE,69,3.1,3.1,70,0.00,,,0.00,VWS V13.01,2013-05-02 01:32:00,
2013-05-01 20:37:00,67.4,57.3,29.98,NE,48,3.1,3.1,70,0.00,,,0.00,VWS V13.01,2013-05-02 01:37:00,
2013-05-01 20:42:00,67.4,57.3,29.98,NE,44,3.1,3.1,70,0.00,,,0.00,VWS V13.01,2013-05-02 01:42:00,
2013-05-01 20:47:00,67.4,57.3,29.98,ENE,61,3.6,3.6,70,0.00,,,0.00,VWS V13.01,2013-05-02 01:47:00,
2013-05-01 20:52:00,67.4,56.9,29.98,NE,51,2.2,2.7,69,0.00,,,0.00,VWS V13.01,2013-05-02 01:52:00,
2013-05-01 20:57:00,67.3,57.2,29.98,ENE,64,0.0,0.0,70,0.00,,,0.00,VWS V13.01,2013-05-02 01:57:00,
2013-05-01 21:02:00,67.1,57.0,29.98,East,84,2.7,3.1,70,0.00,,,0.00,VWS V13.01,2013-05-02 02:02:00,
2013-05-01 21:07:00,66.9,56.8,29.98,East,84,0.0,0.0,70,0.00,,,0.00,VWS V13.01,2013-05-02 02:07:00,
2013-05-01 21:12:00,66.7,56.6,29.98,East,90,0.0,0.0,70,0.00,,,0.00,VWS V13.01,2013-05-02 02:12:00,
2013-05-01 21:17:00,66.5,56.9,30.01,East,82,2.2,2.2,71,0.00,,,0.00,VWS V13.01,2013-05-02 02:17:00,
2013-05-01 21:22:00,66.4,56.7,30.01,ENE,58,3.1,3.1,71,0.00,,,0.00,VWS V13.01,2013-05-02 02:22:00,
2013-05-01 21:27:00,66.4,56.3,30.01,NE,40,2.2,2.7,70,0.00,,,0.00,VWS V13.01,2013-05-02 02:27:00,
2013-05-01 21:32:00,66.4,56.3,30.01,NE,40,0.0,0.0,70,0.00,,,0.00,VWS V13.01,2013-05-02 02:32:00,
2013-05-01 21:37:00,66.4,56.3,30.01,NE,40,0.0,0.0,70,0.00,,,0.00,VWS V13.01,2013-05-02 02:37:00,
2013-05-01 21:42:00,66.2,56.1,30.01,NNE,16,0.0,0.0,70,0.00,,,0.00,VWS V13.01,2013-05-02 02:42:00,
2013-05-01 21:47:00,65.8,56.2,30.01,NNE,30,0.0,0.0,71,0.00,,,0.00,VWS V13.01,2013-05-02 02:47:00,
2013-05-01 21:52:00,65.6,56.0,30.01,NNE,30,0.0,0.0,71,0.00,,,0.00,VWS V13.01,2013-05-02 02:52:00,
2013-05-01 21:57:00,65.5,56.2,30.01,NNE,30,0.0,0.0,72,0.00,,,0.00,VWS V13.01,2013-05-02 02:57:00,
2013-05-01 22:02:00,65.3,56.0,30.04,NNE,30,0.0,0.0,72,0.00,,,0.00,VWS V13.01,2013-05-02 03:02:00,
2013-05-01 22:07:00,65.1,55.9,30.04,NNE,30,0.0,0.0,72,0.00,,,0.00,VWS V13.01,2013-05-02 03:07:00,
2013-05-01 22:12:00,64.9,56.1,30.04,NNE,30,0.0,0.0,73,0.00,,,0.00,VWS V13.01,2013-05-02 03:12:00,
2013-05-01 22:17:00,64.6,56.1,30.04,NNE,30,0.0,0.0,74,0.00,,,0.00,VWS V13.01,2013-05-02 03:17:00,
2013-05-01 22:22:00,64.0,56.3,30.04,NNE,30,0.0,0.0,76,0.00,,,0.00,VWS V13.01,2013-05-02 03:22:00,
2013-05-01 22:27:00,63.7,56.3,30.04,NNE,30,0.0,0.0,77,0.00,,,0.00,VWS V13.01,2013-05-02 03:27:00,
2013-05-01 22:32:00,63.5,56.9,30.04,NNE,30,0.0,0.0,79,0.00,,,0.00,VWS V13.01,2013-05-02 03:32:00,
2013-05-01 22:37:00,63.1,57.2,30.04,NNE,30,0.0,0.0,81,0.00,,,0.00,VWS V13.01,2013-05-02 03:37:00,
2013-05-01 22:42:00,62.9,57.0,30.04,NNE,30,0.0,0.0,81,0.00,,,0.00,VWS V13.01,2013-05-02 03:42:00,
2013-05-01 22:47:00,62.8,57.2,30.04,NNE,30,0.0,0.0,82,0.00,,,0.00,VWS V13.01,2013-05-02 03:47:00,
2013-05-01 22:52:00,62.6,57.0,30.04,NNE,30,0.0,0.0,82,0.00,,,0.00,VWS V13.01,2013-05-02 03:52:00,
2013-05-01 22:57:00,62.2,57.3,30.04,West,278,0.0,0.0,84,0.00,,,0.00,VWS V13.01,2013-05-02 03:57:00,
2013-05-01 23:01:00,62.0,57.8,30.04,West,278,0.0,0.0,86,0.00,,,0.00,VWS V13.01,2013-05-02 04:01:00,
2013-05-01 23:06:00,61.9,57.6,30.04,West,278,0.0,0.0,86,0.00,,,0.00,VWS V13.01,2013-05-02 04:06:00,
2013-05-01 23:11:00,61.7,57.5,30.04,West,278,0.0,0.0,86,0.00,,,0.00,VWS V13.01,2013-05-02 04:11:00,
2013-05-01 23:16:00,61.3,57.1,30.04,West,278,0.0,0.0,86,0.00,,,0.00,VWS V13.01,2013-05-02 04:16:00,
2013-05-01 23:21:00,61.0,57.4,30.04,West,278,0.0,0.0,88,0.00,,,0.00,VWS V13.01,2013-05-02 04:21:00,
2013-05-01 23:26:00,60.6,57.3,30.04,West,278,0.0,0.0,89,0.00,,,0.00,VWS V13.01,2013-05-02 04:26:00,
2013-05-01 23:31:00,60.4,57.5,30.04,West,278,0.0,0.0,90,0.00,,,0.00,VWS V13.01,2013-05-02 04:31:00,
2013-05-01 23:36:00,60.1,57.1,30.04,West,278,0.0,0.0,90,0.00,,,0.00,VWS V13.01,2013-05-02 04:36:00,
2013-05-01 23:41:00,59.7,57.1,30.04,West,278,0.0,0.0,91,0.00,,,0.00,VWS V13.01,2013-05-02 04:41:00,
2013-05-01 23:46:00,59.5,57.2,30.04,West,278,0.0,0.0,92,0.00,,,0.00,VWS V13.01,2013-05-02 04:46:00,
2013-05-01 23:51:00,59.3,57.6,30.04,West,278,0.0,0.0,94,0.00,,,0.00,VWS V13.01,2013-05-02 04:51:00,
2013-05-01 23:56:00,59.2,57.4,30.04,West,278,0.0,0.0,94,0.00,,,0.00,VWS V13.01,2013-05-02 04:56:00,